Time;durP1;ratioP1;P1;durP2;ratioP2;P2;SDS_P1;SDS_P2;PMS_P1;PMS_P2;Temp;Humidity;BMP_temperature;BMP_pressure;BME280_temperature;BME280_humidity;BME280_pressure;Samples;Min_cycle;Max_cycle;Signal;HPM_P1;HPM_P2
2021/10/26 00:02:20;;;;;;;7.40;6.13;;;14.00;56.30;;;;;;5044163;28;20197;-52
2021/10/26 00:04:45;;;;;;;9.23;7.30;;;14.00;56.20;;;;;;5048797;28;20486;-50
2021/10/26 00:07:11;;;;;;;7.33;6.60;;;14.00;55.90;;;;;;5041142;28;20198;-49
2021/10/26 00:09:37;;;;;;;8.53;5.50;;;14.10;55.80;;;;;;5062921;28;20204;-50
2021/10/26 00:12:03;;;;;;;7.70;6.53;;;13.90;56.10;;;;;;5054305;28;20652;-50
2021/10/26 00:14:29;;;;;;;7.60;6.70;;;13.90;56.40;;;;;;5048898;28;20206;-52
2021/10/26 00:16:55;;;;;;;9.83;6.00;;;13.90;56.40;;;;;;5058792;28;20442;-52
2021/10/26 00:19:21;;;;;;;9.50;6.43;;;13.80;56.40;;;;;;5047500;28;20594;-51
2021/10/26 00:21:47;;;;;;;7.50;6.80;;;13.60;57.10;;;;;;5051660;28;20443;-52
2021/10/26 00:24:12;;;;;;;10.70;6.57;;;13.60;57.10;;;;;;5040746;28;20231;-52
2021/10/26 00:26:38;;;;;;;6.87;6.17;;;13.60;56.90;;;;;;5043960;28;20204;-51
2021/10/26 00:29:05;;;;;;;7.67;6.27;;;13.50;57.10;;;;;;5055521;28;20197;-51
2021/10/26 00:31:32;;;;;;;6.03;5.37;;;13.30;57.40;;;;;;5054065;28;20596;-52
2021/10/26 00:33:58;;;;;;;8.07;6.30;;;13.30;57.60;;;;;;5054757;28;20427;-48
2021/10/26 00:36:24;;;;;;;7.83;6.20;;;13.30;57.80;;;;;;5045190;28;20442;-48
2021/10/26 00:38:50;;;;;;;7.07;6.37;;;13.30;57.60;;;;;;5052807;28;20246;-47
2021/10/26 00:41:16;;;;;;;10.37;8.07;;;13.30;57.70;;;;;;5046111;28;20428;-48
2021/10/26 00:43:42;;;;;;;8.30;6.33;;;13.20;57.90;;;;;;5047552;28;20718;-49
2021/10/26 00:46:08;;;;;;;9.23;7.40;;;13.10;58.40;;;;;;5043672;28;20201;-51
2021/10/26 00:48:34;;;;;;;6.77;6.07;;;13.10;58.70;;;;;;5042120;28;20424;-47
2021/10/26 00:50:59;;;;;;;6.50;5.77;;;13.20;58.60;;;;;;5041830;28;20663;-47
2021/10/26 00:53:25;;;;;;;7.30;6.20;;;13.30;58.60;;;;;;5046085;28;20453;-48
2021/10/26 00:55:51;;;;;;;7.00;5.97;;;13.40;58.50;;;;;;5043021;28;20216;-49
2021/10/26 00:58:17;;;;;;;6.50;5.90;;;13.50;58.50;;;;;;5048321;28;20219;-50
2021/10/26 01:00:44;;;;;;;6.47;5.87;;;13.60;58.30;;;;;;5042826;28;20193;-47
2021/10/26 01:03:10;;;;;;;6.17;5.57;;;13.70;57.90;;;;;;5048432;28;20467;-51
2021/10/26 01:05:35;;;;;;;7.73;5.70;;;13.80;57.80;;;;;;5044192;28;20447;-47
2021/10/26 01:08:02;;;;;;;6.60;5.77;;;13.90;57.70;;;;;;5043633;28;20193;-47
2021/10/26 01:10:28;;;;;;;7.07;5.70;;;13.90;57.60;;;;;;5040041;28;20197;-48
2021/10/26 01:12:54;;;;;;;7.90;7.10;;;13.90;58.00;;;;;;5042093;28;20456;-49
2021/10/26 01:15:20;;;;;;;6.43;5.83;;;13.70;57.90;;;;;;5049826;28;20193;-49
2021/10/26 01:17:45;;;;;;;6.60;5.50;;;13.60;58.20;;;;;;5051528;28;20798;-47
2021/10/26 01:20:11;;;;;;;8.00;6.50;;;13.60;58.50;;;;;;5038015;28;20316;-48
2021/10/26 01:22:40;;;;;;;6.70;5.83;;;13.60;58.50;;;;;;5044539;28;20203;-49
2021/10/26 01:25:10;;;;;;;7.17;6.43;;;13.70;58.30;;;;;;5048298;28;20197;-48
2021/10/26 01:27:40;;;;;;;6.40;5.70;;;13.80;58.20;;;;;;5043681;28;20985;-48
2021/10/26 01:30:08;;;;;;;6.60;5.97;;;13.90;57.80;;;;;;5037644;28;20442;-48
2021/10/26 01:32:34;;;;;;;7.40;5.97;;;14.00;57.70;;;;;;5039697;28;20494;-47
2021/10/26 01:34:59;;;;;;;7.20;5.37;;;14.00;57.70;;;;;;5038131;28;20443;-48
2021/10/26 01:37:25;;;;;;;8.30;5.60;;;14.00;57.60;;;;;;5037529;28;20201;-50
2021/10/26 01:39:51;;;;;;;6.73;6.13;;;14.00;57.60;;;;;;5034716;28;20618;-47
2021/10/26 01:42:17;;;;;;;8.57;6.27;;;14.00;57.60;;;;;;5042695;28;20227;-49
2021/10/26 01:44:43;;;;;;;6.47;5.80;;;14.10;57.60;;;;;;5042804;28;20993;-47
2021/10/26 01:47:09;;;;;;;7.67;6.47;;;14.10;57.50;;;;;;5038329;28;20431;-47
2021/10/26 01:49:35;;;;;;;6.70;5.97;;;14.10;57.40;;;;;;5035425;28;20441;-49
2021/10/26 01:52:00;;;;;;;6.80;5.50;;;14.10;57.40;;;;;;5042019;28;20944;-50
2021/10/26 01:54:27;;;;;;;8.33;6.67;;;14.20;57.30;;;;;;5039022;28;20191;-48
2021/10/26 01:56:52;;;;;;;10.80;7.03;;;14.20;57.20;;;;;;5042416;28;20195;-47
2021/10/26 01:59:18;;;;;;;7.97;6.13;;;14.10;57.60;;;;;;5040819;28;20427;-51
2021/10/26 02:01:43;;;;;;;7.17;6.00;;;14.00;57.80;;;;;;5044996;28;20778;-48
2021/10/26 02:04:09;;;;;;;7.33;6.63;;;14.00;57.70;;;;;;5042491;28;20704;-47
2021/10/26 02:06:35;;;;;;;7.30;5.47;;;13.70;58.00;;;;;;5037128;28;20200;-48
2021/10/26 02:09:01;;;;;;;7.30;5.67;;;13.60;58.70;;;;;;5037526;28;20205;-51
2021/10/26 02:11:27;;;;;;;6.13;5.63;;;13.70;59.00;;;;;;5039961;28;20203;-52
2021/10/26 02:13:52;;;;;;;6.50;5.50;;;13.90;58.70;;;;;;5038279;28;20460;-51
2021/10/26 02:16:19;;;;;;;6.73;5.90;;;14.00;59.00;;;;;;5041770;28;20583;-51
2021/10/26 02:18:45;;;;;;;6.20;5.03;;;14.10;58.40;;;;;;5035674;28;20247;-50
2021/10/26 02:21:11;;;;;;;6.40;5.67;;;14.10;58.40;;;;;;5040933;28;20448;-52
2021/10/26 02:23:37;;;;;;;6.77;5.60;;;14.20;58.50;;;;;;5036868;28;20236;-51
2021/10/26 02:26:05;;;;;;;6.87;6.17;;;14.20;58.40;;;;;;5033830;28;20442;-50
2021/10/26 02:28:32;;;;;;;7.17;5.50;;;14.10;58.70;;;;;;5044371;28;20327;-52
2021/10/26 02:30:58;;;;;;;6.80;5.30;;;14.10;58.90;;;;;;5041857;28;20527;-49
2021/10/26 02:33:23;;;;;;;6.97;6.10;;;14.10;58.80;;;;;;5040726;28;20497;-52
2021/10/26 02:35:49;;;;;;;6.37;5.77;;;14.10;58.80;;;;;;5039783;28;20479;-51
2021/10/26 02:38:15;;;;;;;8.60;5.70;;;13.80;58.80;;;;;;5036573;28;20193;-51
2021/10/26 02:40:41;;;;;;;5.77;5.27;;;13.60;59.60;;;;;;5040198;28;20568;-50
2021/10/26 02:43:06;;;;;;;9.57;6.37;;;13.40;60.60;;;;;;5036898;28;20250;-52
2021/10/26 02:45:32;;;;;;;6.23;5.63;;;13.40;60.70;;;;;;5030566;28;20190;-48
2021/10/26 02:47:58;;;;;;;5.57;5.07;;;13.10;61.20;;;;;;5036621;28;20541;-48
2021/10/26 02:50:25;;;;;;;5.97;5.47;;;13.00;62.50;;;;;;5039373;28;20193;-50
2021/10/26 02:52:50;;;;;;;12.33;9.60;;;12.90;63.10;;;;;;5037607;28;20315;-50
2021/10/26 02:55:16;;;;;;;9.53;7.30;;;13.00;62.90;;;;;;5039517;28;20895;-50
2021/10/26 02:57:41;;;;;;;6.93;6.23;;;13.10;63.20;;;;;;5034673;28;20276;-52
2021/10/26 03:00:10;;;;;;;6.30;5.70;;;13.20;63.00;;;;;;5042804;28;20188;-50
2021/10/26 03:02:37;;;;;;;8.03;7.27;;;13.30;62.60;;;;;;5048606;28;20184;-48
2021/10/26 03:05:03;;;;;;;7.10;6.33;;;13.40;62.20;;;;;;5058933;28;20444;-51
2021/10/26 03:07:29;;;;;;;7.33;6.50;;;13.50;62.10;;;;;;5054934;28;20955;-50
2021/10/26 03:09:54;;;;;;;8.10;6.37;;;13.60;61.80;;;;;;5048771;28;20431;-50
2021/10/26 03:12:20;;;;;;;7.10;6.40;;;13.70;61.50;;;;;;5051315;28;20660;-51
2021/10/26 03:14:45;;;;;;;7.50;6.70;;;13.80;61.40;;;;;;5051086;28;20258;-51
2021/10/26 03:17:11;;;;;;;6.30;5.60;;;13.80;61.60;;;;;;5048921;28;20221;-51
2021/10/26 03:19:37;;;;;;;7.60;5.57;;;13.70;61.40;;;;;;5046639;28;21046;-48
2021/10/26 03:22:02;;;;;;;8.77;5.40;;;13.60;61.80;;;;;;5049303;28;20195;-49
2021/10/26 03:24:28;;;;;;;7.70;5.70;;;13.40;62.40;;;;;;5056605;28;20556;-47
2021/10/26 03:26:55;;;;;;;7.47;6.67;;;13.20;62.90;;;;;;5069187;28;20194;-47
2021/10/26 03:29:21;;;;;;;5.60;4.80;;;13.00;63.60;;;;;;5049262;28;20275;-48
2021/10/26 03:31:49;;;;;;;6.60;5.90;;;13.00;64.30;;;;;;5059822;28;20549;-47
2021/10/26 03:34:15;;;;;;;9.17;5.73;;;12.90;64.10;;;;;;5048860;28;20612;-47
2021/10/26 03:36:41;;;;;;;7.30;6.17;;;13.10;64.10;;;;;;5045379;28;20439;-51
2021/10/26 03:39:06;;;;;;;6.37;5.77;;;13.10;64.10;;;;;;5048861;28;20227;-50
2021/10/26 03:41:32;;;;;;;8.17;6.70;;;13.10;64.10;;;;;;5046414;28;20827;-48
2021/10/26 03:43:58;;;;;;;9.67;6.83;;;13.10;64.10;;;;;;5046827;28;20229;-48
2021/10/26 03:46:23;;;;;;;7.77;6.10;;;13.20;63.90;;;;;;5047462;28;20892;-48
2021/10/26 03:48:49;;;;;;;5.90;5.07;;;13.20;63.70;;;;;;5053364;28;20191;-49
2021/10/26 03:51:14;;;;;;;7.67;6.30;;;13.20;63.70;;;;;;5044044;28;20204;-48
2021/10/26 03:53:40;;;;;;;10.80;6.97;;;13.20;63.60;;;;;;5041504;28;20582;-50
2021/10/26 03:56:06;;;;;;;10.93;6.43;;;13.30;63.80;;;;;;5047912;28;20204;-46
2021/10/26 03:58:33;;;;;;;10.53;6.00;;;13.30;63.50;;;;;;5037495;28;20204;-48
2021/10/26 04:00:59;;;;;;;7.23;6.50;;;13.20;63.90;;;;;;5045935;28;20535;-47
2021/10/26 04:03:25;;;;;;;11.50;7.27;;;13.20;63.90;;;;;;5048175;28;20639;-48
2021/10/26 04:09:24;;;;;;;8.23;6.50;;;13.20;64.40;;;;;;5051562;28;20199;-47
2021/10/26 04:13:45;;;;;;;7.63;6.83;;;13.20;64.90;;;;;;5050491;28;22216;-47
2021/10/26 04:16:11;;;;;;;7.93;6.30;;;13.40;64.40;;;;;;5057931;28;20454;-47
2021/10/26 04:18:38;;;;;;;7.23;5.77;;;13.20;64.60;;;;;;5048322;28;20424;-51
2021/10/26 04:21:03;;;;;;;8.37;6.70;;;13.30;64.70;;;;;;5047519;28;20513;-49
2021/10/26 04:23:29;;;;;;;9.33;6.73;;;13.40;64.80;;;;;;5053311;28;20506;-50
2021/10/26 04:25:55;;;;;;;8.27;6.47;;;13.40;64.50;;;;;;5063066;28;20988;-47
2021/10/26 04:28:21;;;;;;;7.03;6.13;;;13.60;64.50;;;;;;5048035;28;20811;-51
2021/10/26 04:30:47;;;;;;;12.50;6.10;;;13.60;64.30;;;;;;5047910;28;20199;-47
2021/10/26 04:33:13;;;;;;;7.00;6.30;;;13.70;63.80;;;;;;5038872;28;20266;-46
2021/10/26 04:35:39;;;;;;;7.17;6.43;;;13.70;63.80;;;;;;5039949;28;20810;-51
2021/10/26 04:38:05;;;;;;;10.20;6.77;;;13.70;63.90;;;;;;5053523;28;20450;-47
2021/10/26 04:40:31;;;;;;;7.73;5.90;;;13.80;63.80;;;;;;5050091;28;20201;-47
2021/10/26 04:42:59;;;;;;;8.27;6.47;;;13.90;63.50;;;;;;5043618;28;20435;-48
2021/10/26 04:45:24;;;;;;;7.27;6.13;;;13.90;64.20;;;;;;5032527;28;20436;-47
2021/10/26 04:47:50;;;;;;;7.93;7.23;;;14.00;63.50;;;;;;5046241;28;20443;-47
2021/10/26 04:50:18;;;;;;;7.30;6.40;;;14.00;63.40;;;;;;5045436;28;20701;-52
2021/10/26 04:52:43;;;;;;;7.80;6.27;;;14.10;63.20;;;;;;5048871;28;20485;-49
2021/10/26 04:55:10;;;;;;;6.90;6.30;;;14.10;63.10;;;;;;5035369;28;20436;-48
2021/10/26 04:57:35;;;;;;;7.80;6.27;;;14.10;63.40;;;;;;5039884;28;20672;-48
2021/10/26 05:00:02;;;;;;;7.70;6.43;;;14.00;63.60;;;;;;5054074;28;20439;-47
2021/10/26 05:02:28;;;;;;;6.47;5.87;;;14.00;63.70;;;;;;5048911;28;20204;-51
2021/10/26 05:04:53;;;;;;;8.23;6.87;;;14.10;63.80;;;;;;5038521;28;20498;-50
2021/10/26 05:07:19;;;;;;;15.30;11.30;;;14.10;63.80;;;;;;5048151;28;20242;-50
2021/10/26 05:09:44;;;;;;;19.97;12.63;;;14.10;63.80;;;;;;5055468;28;20416;-47
2021/10/26 05:12:10;;;;;;;14.73;11.33;;;14.10;63.60;;;;;;5048671;28;20242;-47
2021/10/26 05:14:36;;;;;;;16.20;9.37;;;14.10;63.50;;;;;;5047968;28;20207;-51
2021/10/26 05:17:03;;;;;;;9.10;6.30;;;14.20;63.70;;;;;;5048263;28;20258;-51
2021/10/26 05:19:30;;;;;;;8.50;6.80;;;14.30;64.40;;;;;;5046521;28;20320;-50
2021/10/26 05:21:56;;;;;;;9.27;6.33;;;14.50;65.40;;;;;;5047521;28;20435;-48
2021/10/26 05:24:24;;;;;;;8.23;6.60;;;14.70;65.60;;;;;;5052106;28;20496;-47
2021/10/26 05:26:51;;;;;;;7.90;7.20;;;14.90;64.60;;;;;;5057376;28;20914;-48
2021/10/26 05:29:17;;;;;;;7.67;6.97;;;15.10;63.30;;;;;;5044156;28;20439;-47
2021/10/26 05:31:42;;;;;;;8.97;6.90;;;15.20;62.40;;;;;;5045739;28;20518;-49
2021/10/26 05:34:09;;;;;;;7.33;6.43;;;15.20;61.80;;;;;;5036529;28;20251;-51
2021/10/26 05:36:36;;;;;;;14.13;10.40;;;15.20;61.10;;;;;;5046398;28;20664;-50
2021/10/26 05:39:08;;;;;;;14.97;10.90;;;15.30;60.80;;;;;;5052771;28;20443;-54
2021/10/26 05:41:35;;;;;;;10.50;8.20;;;15.40;60.60;;;;;;5047000;28;20435;-52
2021/10/26 05:44:01;;;;;;;7.10;6.40;;;15.40;60.90;;;;;;5045934;28;20479;-53
2021/10/26 05:46:26;;;;;;;9.10;6.50;;;15.40;59.80;;;;;;5047628;28;20509;-49
2021/10/26 05:48:52;;;;;;;7.70;6.97;;;15.40;59.70;;;;;;5042964;28;20200;-47
2021/10/26 05:51:18;;;;;;;10.30;8.03;;;15.50;59.60;;;;;;5041318;28;20192;-49
2021/10/26 05:53:43;;;;;;;7.60;6.80;;;15.60;59.50;;;;;;5047732;28;20564;-51
2021/10/26 05:56:09;;;;;;;7.80;7.00;;;15.60;59.40;;;;;;5041053;28;20465;-51
2021/10/26 05:58:35;;;;;;;10.23;7.47;;;15.60;59.40;;;;;;5048262;28;20274;-50
2021/10/26 06:01:01;;;;;;;8.97;7.30;;;15.60;59.10;;;;;;5038977;28;20238;-52
2021/10/26 06:03:26;;;;;;;8.37;6.70;;;15.60;59.00;;;;;;5037169;28;20271;-51
2021/10/26 06:05:52;;;;;;;8.10;7.30;;;15.60;59.10;;;;;;5050595;28;20214;-51
2021/10/26 06:08:18;;;;;;;14.67;9.60;;;15.60;59.00;;;;;;5046832;28;20281;-50
2021/10/26 06:10:47;;;;;;;10.23;8.93;;;15.60;58.90;;;;;;5050819;28;20201;-52
2021/10/26 06:13:17;;;;;;;12.60;8.87;;;15.60;58.70;;;;;;5037297;28;20447;-52
2021/10/26 06:15:43;;;;;;;9.43;7.70;;;15.40;59.10;;;;;;5047877;28;20815;-51
2021/10/26 06:18:09;;;;;;;8.93;7.60;;;15.50;59.50;;;;;;5046839;28;20434;-51
2021/10/26 06:20:34;;;;;;;9.03;7.27;;;15.50;59.20;;;;;;5040470;28;20232;-48
2021/10/26 06:23:00;;;;;;;9.13;7.43;;;15.40;58.90;;;;;;5047414;28;20200;-48
2021/10/26 06:25:26;;;;;;;12.80;7.80;;;15.50;58.70;;;;;;5038056;28;20750;-49
2021/10/26 06:27:52;;;;;;;9.13;7.43;;;15.50;58.70;;;;;;5048842;28;20192;-52
2021/10/26 06:30:17;;;;;;;8.30;7.33;;;15.50;58.70;;;;;;5042449;28;20185;-48
2021/10/26 06:32:44;;;;;;;7.73;7.03;;;15.50;58.90;;;;;;5047568;28;20529;-48
2021/10/26 06:35:11;;;;;;;8.43;6.90;;;15.50;58.90;;;;;;5050146;28;20224;-51
2021/10/26 06:37:40;;;;;;;9.07;7.60;;;15.60;58.80;;;;;;5045416;28;20439;-49
2021/10/26 06:40:06;;;;;;;11.00;8.90;;;15.30;58.90;;;;;;5047160;28;20431;-47
2021/10/26 06:42:33;;;;;;;15.77;11.90;;;15.10;59.50;;;;;;5049623;28;20445;-51
2021/10/26 06:44:59;;;;;;;12.27;9.13;;;15.10;59.90;;;;;;5081264;28;20483;-50
2021/10/26 06:47:25;;;;;;;9.60;8.30;;;15.20;59.70;;;;;;5054776;28;20434;-49
2021/10/26 06:49:50;;;;;;;11.60;8.83;;;15.20;59.60;;;;;;5049619;28;20458;-51
2021/10/26 06:52:16;;;;;;;9.27;7.77;;;15.20;59.50;;;;;;5043439;28;20193;-51
2021/10/26 06:54:43;;;;;;;8.37;7.57;;;15.30;59.50;;;;;;5043479;28;20197;-50
2021/10/26 06:57:09;;;;;;;9.90;7.23;;;15.40;59.40;;;;;;5044850;28;20204;-50
2021/10/26 06:59:35;;;;;;;8.60;7.70;;;15.40;59.50;;;;;;5047953;28;20476;-48
2021/10/26 07:02:02;;;;;;;8.57;7.67;;;15.40;59.70;;;;;;5038157;28;20478;-52
2021/10/26 07:04:34;;;;;;;8.27;7.57;;;15.30;60.00;;;;;;5045152;28;20506;-48
2021/10/26 07:06:59;;;;;;;12.17;7.20;;;15.30;60.00;;;;;;5038103;28;20470;-50
2021/10/26 07:09:25;;;;;;;10.10;7.57;;;15.40;60.30;;;;;;5038792;28;20998;-52
2021/10/26 07:11:51;;;;;;;8.53;7.10;;;15.40;59.80;;;;;;5042653;28;20205;-50
2021/10/26 07:14:16;;;;;;;8.53;7.67;;;15.60;59.80;;;;;;5050470;28;20250;-53
2021/10/26 07:16:42;;;;;;;10.83;7.43;;;15.60;59.70;;;;;;5045932;28;20219;-52
2021/10/26 07:19:07;;;;;;;9.80;8.27;;;15.50;59.80;;;;;;5045520;28;20271;-51
2021/10/26 07:21:33;;;;;;;8.20;7.40;;;15.60;59.50;;;;;;5045472;28;20279;-48
2021/10/26 07:24:00;;;;;;;8.37;7.20;;;15.70;59.60;;;;;;5054133;28;20707;-51
2021/10/26 07:26:26;;;;;;;8.27;7.43;;;15.80;59.50;;;;;;5044715;28;20192;-49
2021/10/26 07:28:54;;;;;;;10.33;8.17;;;15.90;59.40;;;;;;5046508;28;20444;-51
2021/10/26 07:31:23;;;;;;;10.60;9.23;;;15.80;59.20;;;;;;5046723;28;20857;-48
2021/10/26 07:33:49;;;;;;;12.40;9.43;;;15.90;59.70;;;;;;5045035;28;20779;-52
2021/10/26 07:36:15;;;;;;;9.10;7.93;;;16.00;59.70;;;;;;5047848;28;20451;-50
2021/10/26 07:38:41;;;;;;;9.57;8.50;;;16.20;59.80;;;;;;5043046;28;20270;-49
2021/10/26 07:41:09;;;;;;;8.30;7.43;;;16.30;59.70;;;;;;5045454;28;20477;-51
2021/10/26 07:43:35;;;;;;;10.33;7.90;;;16.60;59.60;;;;;;5052458;28;20220;-52
2021/10/26 07:46:03;;;;;;;10.60;7.97;;;16.70;59.20;;;;;;5052111;28;20585;-51
2021/10/26 07:48:28;;;;;;;9.83;7.87;;;16.70;59.00;;;;;;5040326;28;20451;-51
2021/10/26 07:50:58;;;;;;;8.57;7.77;;;16.70;59.00;;;;;;5044617;28;20432;-52
2021/10/26 07:53:29;;;;;;;8.83;7.93;;;16.80;59.30;;;;;;5068803;28;20247;-53
2021/10/26 07:55:57;;;;;;;9.50;8.50;;;16.70;59.20;;;;;;5046667;28;20427;-49
2021/10/26 07:58:24;;;;;;;10.80;7.93;;;16.20;60.10;;;;;;5058779;28;20535;-47
2021/10/26 08:00:50;;;;;;;9.23;8.33;;;16.00;60.80;;;;;;5043898;28;20574;-48
2021/10/26 08:03:16;;;;;;;10.13;8.37;;;15.90;61.80;;;;;;5052043;28;20463;-47
2021/10/26 08:05:41;;;;;;;9.23;8.00;;;16.00;62.50;;;;;;5046743;28;20427;-48
2021/10/26 08:08:07;;;;;;;8.80;7.70;;;16.20;62.30;;;;;;5039364;28;20660;-48
2021/10/26 08:10:33;;;;;;;14.73;12.00;;;16.30;61.70;;;;;;5060381;28;20587;-48
2021/10/26 08:12:59;;;;;;;12.37;10.40;;;16.40;61.90;;;;;;5050691;28;20202;-50
2021/10/26 08:15:25;;;;;;;12.13;8.53;;;16.40;61.40;;;;;;5046216;28;20950;-47
2021/10/26 08:17:50;;;;;;;9.60;8.67;;;16.60;61.40;;;;;;5048965;28;20279;-51
2021/10/26 08:20:16;;;;;;;9.60;8.60;;;16.60;61.00;;;;;;5065749;28;20488;-51
2021/10/26 08:22:43;;;;;;;9.40;8.40;;;16.60;60.80;;;;;;5043728;28;20203;-49
2021/10/26 08:25:19;;;;;;;11.80;8.70;;;16.80;60.50;;;;;;5033481;28;20233;-52
2021/10/26 08:27:44;;;;;;;8.93;8.07;;;16.90;60.30;;;;;;5050197;28;20434;-51
2021/10/26 08:30:17;;;;;;;9.63;8.60;;;17.00;60.10;;;;;;5053734;28;20431;-52
2021/10/26 08:32:59;;;;;;;9.90;8.90;;;17.00;60.00;;;;;;5046968;28;20275;-49
2021/10/26 08:35:26;;;;;;;10.17;9.17;;;16.90;60.10;;;;;;5049474;28;20435;-52
2021/10/26 08:38:00;;;;;;;11.13;9.77;;;16.90;60.00;;;;;;5053325;28;20446;-51
2021/10/26 08:40:30;;;;;;;16.20;12.70;;;16.90;60.30;;;;;;5043546;28;20987;-51
2021/10/26 08:43:02;;;;;;;12.33;11.13;;;16.80;59.80;;;;;;5050165;28;20496;-51
2021/10/26 08:45:28;;;;;;;11.17;10.07;;;16.20;61.70;;;;;;5045112;28;20447;-50
2021/10/26 08:47:54;;;;;;;12.23;11.03;;;16.30;62.10;;;;;;5054739;28;20799;-52
2021/10/26 08:50:20;;;;;;;10.20;9.20;;;16.70;61.60;;;;;;5038114;28;20307;-48
2021/10/26 08:52:47;;;;;;;11.67;10.47;;;17.00;61.00;;;;;;5047431;28;20454;-52
2021/10/26 08:55:13;;;;;;;11.80;10.60;;;17.30;60.60;;;;;;5055144;28;20457;-47
2021/10/26 08:57:40;;;;;;;11.00;9.87;;;17.50;60.90;;;;;;5067395;28;20435;-52
2021/10/26 09:00:07;;;;;;;12.57;10.40;;;17.60;60.70;;;;;;5043434;28;20436;-52
2021/10/26 09:02:41;;;;;;;11.93;10.70;;;17.80;60.70;;;;;;5041344;28;20788;-51
2021/10/26 09:05:09;;;;;;;10.17;9.17;;;17.90;60.30;;;;;;5061043;28;20485;-47
2021/10/26 09:07:35;;;;;;;10.37;8.67;;;18.20;60.00;;;;;;5054968;28;20439;-47
2021/10/26 09:10:16;;;;;;;8.67;7.80;;;18.50;59.80;;;;;;5042452;28;20432;-51
2021/10/26 09:17:56;;;;;;;8.23;7.37;;;18.50;58.90;;;;;;5050412;28;20453;-49
2021/10/26 09:20:24;;;;;;;10.23;6.87;;;18.40;58.30;;;;;;5035660;28;20514;-48
2021/10/26 09:22:58;;;;;;;10.33;7.53;;;18.40;58.70;;;;;;5043147;28;20602;-47
2021/10/26 09:25:31;;;;;;;8.30;6.90;;;18.50;58.60;;;;;;5043585;28;20971;-49
2021/10/26 09:28:17;;;;;;;7.80;6.40;;;18.80;58.20;;;;;;5041197;28;20427;-55
2021/10/26 09:31:04;;;;;;;7.07;6.37;;;19.20;58.00;;;;;;5030686;28;20446;-48
2021/10/26 09:33:41;;;;;;;8.50;7.47;;;19.40;57.00;;;;;;5037083;28;20436;-49
2021/10/26 09:36:27;;;;;;;7.80;7.10;;;19.50;56.90;;;;;;5043154;28;20434;-49
2021/10/26 09:39:06;;;;;;;9.80;6.87;;;19.80;56.60;;;;;;5056398;28;20444;-48
2021/10/26 09:41:37;;;;;;;7.50;6.80;;;20.00;56.70;;;;;;5041823;28;20830;-52
2021/10/26 09:44:17;;;;;;;7.70;6.90;;;20.20;55.70;;;;;;5050636;28;20482;-48
2021/10/26 09:46:54;;;;;;;5.90;5.30;;;20.30;56.40;;;;;;5047510;28;20453;-48
2021/10/26 09:49:29;;;;;;;4.80;4.33;;;20.50;55.80;;;;;;5032201;28;20447;-51
2021/10/26 09:52:09;;;;;;;9.90;5.90;;;20.70;54.60;;;;;;5041606;28;20461;-48
2021/10/26 09:54:35;;;;;;;4.93;4.37;;;20.90;53.40;;;;;;5042516;28;20982;-49
2021/10/26 09:57:06;;;;;;;5.03;4.53;;;21.10;52.20;;;;;;5053517;28;20549;-50
2021/10/26 09:59:33;;;;;;;4.50;4.10;;;21.10;52.20;;;;;;5040950;28;20451;-49
2021/10/26 10:01:59;;;;;;;5.53;4.47;;;21.10;52.10;;;;;;5048831;28;20922;-48
2021/10/26 10:04:34;;;;;;;4.87;3.93;;;21.10;52.70;;;;;;5047984;28;20497;-47
2021/10/26 10:07:00;;;;;;;7.00;4.57;;;21.10;52.60;;;;;;5044421;28;20203;-48
2021/10/26 10:09:26;;;;;;;9.43;5.20;;;21.10;52.80;;;;;;5046566;28;20431;-47
2021/10/26 10:12:07;;;;;;;5.23;4.73;;;21.10;53.00;;;;;;5047003;28;20937;-46
2021/10/26 10:14:35;;;;;;;6.23;4.40;;;21.10;52.70;;;;;;5047043;28;20435;-48
2021/10/26 10:17:03;;;;;;;6.63;4.30;;;21.00;53.00;;;;;;5039186;28;20602;-48
2021/10/26 10:19:33;;;;;;;5.93;4.63;;;21.00;52.80;;;;;;5035642;28;20479;-46
2021/10/26 10:22:00;;;;;;;6.83;5.60;;;21.00;52.60;;;;;;5039135;28;20529;-48
2021/10/26 10:24:28;;;;;;;5.90;4.73;;;21.00;52.30;;;;;;5046310;28;20486;-47
2021/10/26 10:26:54;;;;;;;7.07;4.80;;;20.90;52.30;;;;;;5042551;28;21003;-48
2021/10/26 10:29:20;;;;;;;5.03;4.63;;;21.00;52.70;;;;;;5043277;28;20497;-48
2021/10/26 10:31:49;;;;;;;5.37;4.17;;;20.90;53.20;;;;;;5053351;28;20485;-48
2021/10/26 10:34:20;;;;;;;4.93;3.90;;;21.10;53.00;;;;;;5058411;28;20438;-48
2021/10/26 10:36:46;;;;;;;6.13;4.20;;;21.50;51.00;;;;;;5046905;28;20439;-47
2021/10/26 10:39:14;;;;;;;5.43;3.60;;;21.80;51.60;;;;;;5048641;28;20436;-48
2021/10/26 10:41:42;;;;;;;5.23;3.53;;;22.20;49.80;;;;;;5047518;28;20477;-47
2021/10/26 10:44:19;;;;;;;3.50;3.00;;;22.40;49.40;;;;;;5054473;28;20586;-48
2021/10/26 10:46:54;;;;;;;4.63;3.40;;;22.60;49.30;;;;;;5041950;28;20447;-47
2021/10/26 10:49:22;;;;;;;5.10;3.30;;;22.70;48.40;;;;;;5049074;28;20446;-52
2021/10/26 10:51:57;;;;;;;5.40;3.50;;;22.80;48.00;;;;;;5048824;28;20443;-48
2021/10/26 10:54:36;;;;;;;4.70;3.20;;;22.90;48.90;;;;;;5045047;28;20597;-47
2021/10/26 10:57:18;;;;;;;7.93;3.53;;;23.30;47.40;;;;;;5043111;28;20470;-47
2021/10/26 10:59:50;;;;;;;5.13;3.33;;;23.30;46.00;;;;;;5056094;28;20473;-47
2021/10/26 11:02:25;;;;;;;4.83;2.50;;;23.10;46.00;;;;;;5054829;28;20443;-47
2021/10/26 11:04:52;;;;;;;3.90;3.50;;;23.00;46.30;;;;;;5048937;28;20559;-48
2021/10/26 11:07:42;;;;;;;3.43;2.67;;;22.90;46.90;;;;;;5039935;28;20435;-47
2021/10/26 11:10:09;;;;;;;3.80;2.60;;;22.90;47.20;;;;;;5046848;28;20443;-49
2021/10/26 11:12:38;;;;;;;4.90;3.40;;;22.90;47.50;;;;;;5050054;28;20453;-51
2021/10/26 11:15:06;;;;;;;3.50;3.20;;;23.00;47.20;;;;;;5047717;28;20446;-48
2021/10/26 11:17:35;;;;;;;2.77;2.47;;;23.10;46.70;;;;;;5039834;28;20562;-47
2021/10/26 11:20:28;;;;;;;7.43;2.80;;;23.30;46.10;;;;;;5048388;28;20483;-47
2021/10/26 11:23:02;;;;;;;4.53;3.20;;;23.40;46.20;;;;;;5043931;28;20482;-50
2021/10/26 11:25:28;;;;;;;6.03;3.33;;;23.50;45.90;;;;;;5053669;28;20820;-47
2021/10/26 11:27:57;;;;;;;4.20;3.47;;;23.40;45.30;;;;;;5045912;28;20442;-47
2021/10/26 11:30:32;;;;;;;3.63;2.80;;;23.30;45.60;;;;;;5047937;28;20215;-47
2021/10/26 11:33:10;;;;;;;11.20;7.77;;;23.20;45.80;;;;;;5045621;28;21017;-50
2021/10/26 11:35:59;;;;;;;7.17;4.20;;;23.00;46.70;;;;;;5048310;28;20493;-51
2021/10/26 11:38:31;;;;;;;6.10;4.20;;;23.00;47.00;;;;;;5050838;28;20435;-47
2021/10/26 11:41:02;;;;;;;5.13;4.20;;;22.90;47.80;;;;;;5043477;28;20795;-47
2021/10/26 11:43:29;;;;;;;7.23;4.60;;;22.90;48.70;;;;;;5048546;28;20466;-48
2021/10/26 11:45:56;;;;;;;6.03;4.20;;;22.80;48.10;;;;;;5051398;28;20469;-47
2021/10/26 11:48:45;;;;;;;6.63;3.70;;;22.60;47.90;;;;;;5045585;28;20496;-49
2021/10/26 11:51:39;;;;;;;5.70;3.57;;;22.70;48.00;;;;;;5053415;28;20489;-51
2021/10/26 11:54:06;;;;;;;4.80;4.10;;;22.80;48.40;;;;;;5049736;28;20553;-51
2021/10/26 11:56:39;;;;;;;3.50;3.20;;;22.80;47.90;;;;;;5047632;28;20539;-52
2021/10/26 11:59:33;;;;;;;4.30;3.47;;;22.90;48.40;;;;;;5046543;28;20451;-50
2021/10/26 12:02:05;;;;;;;4.80;3.80;;;23.20;47.80;;;;;;5039057;28;20436;-50
2021/10/26 12:04:39;;;;;;;3.93;3.20;;;23.20;47.30;;;;;;5045683;28;20493;-46
2021/10/26 12:07:08;;;;;;;3.63;2.63;;;23.20;47.40;;;;;;5047537;28;20455;-51
2021/10/26 12:09:37;;;;;;;5.70;3.40;;;23.30;47.30;;;;;;5046083;28;20577;-50
2021/10/26 12:12:11;;;;;;;4.33;3.03;;;23.40;46.80;;;;;;5049488;28;20794;-49
2021/10/26 12:14:42;;;;;;;8.67;3.20;;;23.50;47.00;;;;;;5044788;28;20789;-51
2021/10/26 12:17:12;;;;;;;8.77;3.90;;;23.60;46.50;;;;;;5042835;28;20802;-50
2021/10/26 12:19:46;;;;;;;5.13;3.33;;;23.60;46.30;;;;;;5032391;28;20483;-48
2021/10/26 12:22:26;;;;;;;4.07;3.27;;;23.60;45.90;;;;;;5037949;28;20446;-51
2021/10/26 12:25:17;;;;;;;5.30;3.20;;;23.40;45.90;;;;;;5039659;28;20522;-47
2021/10/26 12:27:50;;;;;;;3.70;3.40;;;23.20;46.30;;;;;;5035107;28;20485;-49
2021/10/26 12:30:24;;;;;;;2.80;2.60;;;23.10;46.40;;;;;;5048799;28;20801;-50
2021/10/26 12:32:56;;;;;;;3.50;2.70;;;23.00;46.80;;;;;;5047797;28;20502;-51
2021/10/26 12:35:27;;;;;;;4.80;3.50;;;22.80;46.60;;;;;;5045391;28;20431;-48
2021/10/26 12:38:32;;;;;;;3.17;2.60;;;22.60;47.40;;;;;;5036251;28;20999;-48
2021/10/26 12:41:04;;;;;;;6.57;3.40;;;22.50;47.80;;;;;;5041709;28;20478;-47
2021/10/26 12:43:30;;;;;;;4.47;3.70;;;22.50;48.00;;;;;;5039262;28;20830;-47
2021/10/26 12:45:59;;;;;;;3.40;3.10;;;22.50;48.20;;;;;;5043940;28;20431;-47
2021/10/26 12:48:35;;;;;;;4.00;2.87;;;22.60;48.70;;;;;;5041328;28;21130;-49
2021/10/26 12:51:03;;;;;;;4.83;3.03;;;22.70;47.80;;;;;;5044902;28;20442;-50
2021/10/26 12:53:39;;;;;;;4.53;2.50;;;22.80;47.30;;;;;;5041932;28;20525;-51
2021/10/26 12:56:18;;;;;;;4.77;2.87;;;22.80;47.60;;;;;;5046682;28;20488;-51
2021/10/26 12:58:54;;;;;;;4.33;2.70;;;22.70;47.90;;;;;;5046922;28;20443;-47
2021/10/26 13:01:31;;;;;;;3.37;2.43;;;22.70;48.10;;;;;;5043099;28;20443;-47
2021/10/26 13:04:03;;;;;;;4.13;3.70;;;22.70;47.50;;;;;;5039091;28;20482;-47